Airfield :
LOGIN :

Register | Disclaimer

   EN    FR    IT 

 










Legend :    VFR   Marginal VFR   IFR   Intensive IFR   Very Intensive IFR
Visi :
Ceiling :
>= 8 km
>= 3000ft
5 to 8 km
1000 to 3000 ft
1500m to 5 km
500 to 1000 ft
800 to 1500m
200 to 500 ft
< 800m
< 200 ft
Symbols :   Thunderstorms  Fog  Heavy snow  Heavy precipitations  Wind > 20 kt
SIGMETs :     Misc.  Thunderstorms  Icing  Turbulence  Mountain Waves  Volcanic Ashes







- Airport Elevation : 1649 ft
- IATA code : HHN


EDFH - Frankfurt-Hahn Rhineland-Palatinate

CURRENT METAR :
  • 240520Z 22020G30KT 9999 -RA BKN035 10/09 Q1008

EXPIRED METARs :
  • 240450Z 22020G35KT 9999 -RA FEW015 SCT040 10/08 Q1009
  • 240420Z 22018G29KT 200V260 9999 FEW019 SCT033 10/08 Q1008
  • 240350Z 20021G31KT 9999 FEW018 BKN030 10/08 Q1009
  • 240320Z 19016KT 9999 FEW017 BKN036 10/09 Q1009
  • 240250Z 20014KT 160V220 9999 FEW006 SCT020 10/09 Q1009

TAF TAF EDFH
Valid from the 24 at 06:00 until the 25 at 06:00 UTC


240500Z 2406/2506 22015G25KT 9999 FEW010 BKN020
TEMPO 2406/2416 25020G30KT 3500 RA BKN007
BECMG 2416/2419 24007KT SCT003 BKN007
TEMPO 2419/2502 2500 -DZ BR BKN003
TEMPO 2502/2506 2000 +RA OVC002
No reported NOTAMs for that airfield.



MET'MAP, your aeronautical weather chart ! - Copyright ORBIFLY December 2007 - Disclaimer

ORBIFLY MET'MAP TEAM :

Programming & Development : Alexandra Zaïnal
Concept & Development : Baudouin d'Aumeries
Co-Development & Prog : Marc-Olivier Méhu
Technical & hardware support : Manuel Goepfert

Contact : metmap@orbifly.com




SOURCES & CREDITS :

   NOAA